首页
METAR-TAF:

METAR-TAF

机场 :

夏洛特道格拉斯國際機場

夏洛特, 北卡罗来纳州, 美国

纬度: 35-12-48N, 经度: 080-56-55W, 海拔: 228米

当前天气观测

该预报发布于41分钟前的09:52 UTC
风速9节,风向北转东北
温度 4°C
湿度 70%
气压 1022 hPa
能見度: 16.1公里
散云层高于15000英尺
多云层高于18000英尺
阴天层高于25000英尺

METAR: KCLT 150952Z 02009KT 10SM SCT150 BKN180 OVC250 04/M01 A3019 RMK AO2 RAE0856 SLP225 P0000 T00391011

时间: 05:33 (10:33 UTC)

预报

该预报发布于36分钟前的09:57 UTC
预报有效从15日的 10点(UTC)到 16日的 12点(UTC)
风速8节,风向
能見度: 10公里
散云层高于3000英尺
多云层高于10000英尺
附近有阵雨
从 15日的 1500点(UTC)
风速10节,风向北转东北,有时为17节阵风
能見度: 10公里
散云层高于2500英尺
多云层高于5000英尺
小阵雨
从 16日的 0300点(UTC)
风速10节,风向北转东北,有时为17节阵风
能見度: 9.7公里
散云层高于1000英尺
多云层高于2500英尺
小阵雨

TAF: KCLT 150957Z 1510/1612 01008KT P6SM VCSH SCT030 BKN100 FM151500 02010G17KT P6SM -SHRA SCT025 BKN050 FM160300 02010G17KT 6SM -SHRA SCT010 BKN025

超过4000个机场的气象观测和天气预报(METAR&TAF报告)。

可查询的气象台以黄色和红色小点在地图上表示。

将鼠标移到小点上方,可查看气象台名称。

然后点击查看天气观测和预报。

如需切换地图:点击带黑十字的绿色按钮放大地图;点击带横线的绿色按钮缩小地图;或者点击绿色箭头查看邻近地区的地图。


METAR-TAF: